sensor_id;sensor_type;location;lat;lon;timestamp;P1;durP1;ratioP1;P2;durP2;ratioP2
53751;SDS011;41095;53.090;6.692;2023-08-31T00:02:11;3.10;;;2.60;;
53751;SDS011;41095;53.090;6.692;2023-08-31T00:04:36;3.22;;;2.70;;
53751;SDS011;41095;53.090;6.692;2023-08-31T00:07:02;4.07;;;2.42;;
53751;SDS011;41095;53.090;6.692;2023-08-31T00:09:28;3.35;;;2.58;;
53751;SDS011;41095;53.090;6.692;2023-08-31T00:11:56;3.92;;;2.67;;
53751;SDS011;41095;53.090;6.692;2023-08-31T00:14:22;3.05;;;2.55;;
53751;SDS011;41095;53.090;6.692;2023-08-31T00:16:49;7.50;;;3.60;;
53751;SDS011;41095;53.090;6.692;2023-08-31T00:19:15;5.20;;;2.70;;
53751;SDS011;41095;53.090;6.692;2023-08-31T00:21:41;6.00;;;3.20;;
53751;SDS011;41095;53.090;6.692;2023-08-31T00:24:07;4.65;;;3.08;;
53751;SDS011;41095;53.090;6.692;2023-08-31T00:26:34;3.00;;;2.53;;
53751;SDS011;41095;53.090;6.692;2023-08-31T00:29:04;5.85;;;3.10;;
53751;SDS011;41095;53.090;6.692;2023-08-31T00:31:30;5.88;;;3.20;;
53751;SDS011;41095;53.090;6.692;2023-08-31T00:33:56;3.28;;;2.30;;
53751;SDS011;41095;53.090;6.692;2023-08-31T00:36:21;5.50;;;3.00;;
53751;SDS011;41095;53.090;6.692;2023-08-31T00:38:48;4.40;;;2.28;;
53751;SDS011;41095;53.090;6.692;2023-08-31T00:41:14;4.15;;;3.00;;
53751;SDS011;41095;53.090;6.692;2023-08-31T00:43:40;2.35;;;2.15;;
53751;SDS011;41095;53.090;6.692;2023-08-31T00:46:06;3.55;;;2.60;;
53751;SDS011;41095;53.090;6.692;2023-08-31T00:48:31;3.53;;;2.85;;
53751;SDS011;41095;53.090;6.692;2023-08-31T00:50:57;4.45;;;2.97;;
53751;SDS011;41095;53.090;6.692;2023-08-31T00:53:23;4.82;;;2.63;;
53751;SDS011;41095;53.090;6.692;2023-08-31T00:55:50;3.15;;;2.22;;
53751;SDS011;41095;53.090;6.692;2023-08-31T00:58:16;4.35;;;2.42;;
53751;SDS011;41095;53.090;6.692;2023-08-31T01:03:48;7.70;;;2.05;;
53751;SDS011;41095;53.090;6.692;2023-08-31T01:14:25;5.10;;;1.85;;
53751;SDS011;41095;53.090;6.692;2023-08-31T01:16:55;3.50;;;2.22;;
53751;SDS011;41095;53.090;6.692;2023-08-31T01:22:03;2.60;;;2.25;;
53751;SDS011;41095;53.090;6.692;2023-08-31T01:24:32;5.57;;;2.08;;
53751;SDS011;41095;53.090;6.692;2023-08-31T01:26:59;2.25;;;1.70;;
53751;SDS011;41095;53.090;6.692;2023-08-31T01:29:24;3.80;;;2.50;;
53751;SDS011;41095;53.090;6.692;2023-08-31T01:31:50;3.83;;;2.00;;
53751;SDS011;41095;53.090;6.692;2023-08-31T01:34:16;5.38;;;2.25;;
53751;SDS011;41095;53.090;6.692;2023-08-31T01:36:43;3.70;;;2.03;;
53751;SDS011;41095;53.090;6.692;2023-08-31T01:41:43;5.65;;;2.30;;
53751;SDS011;41095;53.090;6.692;2023-08-31T01:44:15;3.35;;;2.10;;
53751;SDS011;41095;53.090;6.692;2023-08-31T01:46:45;3.05;;;1.75;;
53751;SDS011;41095;53.090;6.692;2023-08-31T01:49:11;2.58;;;1.38;;
53751;SDS011;41095;53.090;6.692;2023-08-31T01:51:37;2.42;;;1.70;;
53751;SDS011;41095;53.090;6.692;2023-08-31T01:54:03;6.32;;;2.45;;
53751;SDS011;41095;53.090;6.692;2023-08-31T01:56:29;3.25;;;1.90;;
53751;SDS011;41095;53.090;6.692;2023-08-31T01:58:54;2.42;;;1.98;;
53751;SDS011;41095;53.090;6.692;2023-08-31T02:01:20;3.75;;;2.13;;
53751;SDS011;41095;53.090;6.692;2023-08-31T02:03:46;2.40;;;1.48;;
53751;SDS011;41095;53.090;6.692;2023-08-31T02:06:12;3.13;;;2.40;;
53751;SDS011;41095;53.090;6.692;2023-08-31T02:08:38;2.00;;;1.80;;
53751;SDS011;41095;53.090;6.692;2023-08-31T02:11:03;2.38;;;2.10;;
53751;SDS011;41095;53.090;6.692;2023-08-31T02:13:29;3.92;;;2.35;;
53751;SDS011;41095;53.090;6.692;2023-08-31T02:15:55;2.00;;;1.80;;
53751;SDS011;41095;53.090;6.692;2023-08-31T02:18:21;4.22;;;2.05;;
53751;SDS011;41095;53.090;6.692;2023-08-31T02:20:47;2.30;;;2.10;;
53751;SDS011;41095;53.090;6.692;2023-08-31T02:23:13;4.72;;;2.33;;
53751;SDS011;41095;53.090;6.692;2023-08-31T02:25:38;2.15;;;1.80;;
53751;SDS011;41095;53.090;6.692;2023-08-31T02:28:04;4.47;;;2.25;;
53751;SDS011;41095;53.090;6.692;2023-08-31T02:30:30;3.40;;;2.08;;
53751;SDS011;41095;53.090;6.692;2023-08-31T02:32:56;2.60;;;1.70;;
53751;SDS011;41095;53.090;6.692;2023-08-31T02:35:22;2.85;;;1.73;;
53751;SDS011;41095;53.090;6.692;2023-08-31T02:37:48;5.05;;;1.70;;
53751;SDS011;41095;53.090;6.692;2023-08-31T02:40:13;2.50;;;2.03;;
53751;SDS011;41095;53.090;6.692;2023-08-31T02:42:40;2.05;;;1.70;;
53751;SDS011;41095;53.090;6.692;2023-08-31T02:45:06;3.92;;;2.35;;
53751;SDS011;41095;53.090;6.692;2023-08-31T02:47:32;1.70;;;1.60;;
53751;SDS011;41095;53.090;6.692;2023-08-31T02:49:58;3.40;;;1.92;;
53751;SDS011;41095;53.090;6.692;2023-08-31T02:52:24;1.80;;;1.70;;
53751;SDS011;41095;53.090;6.692;2023-08-31T02:54:50;2.08;;;1.60;;
53751;SDS011;41095;53.090;6.692;2023-08-31T02:57:16;5.35;;;2.00;;
53751;SDS011;41095;53.090;6.692;2023-08-31T02:59:44;6.40;;;2.15;;
53751;SDS011;41095;53.090;6.692;2023-08-31T03:02:11;3.20;;;1.75;;
53751;SDS011;41095;53.090;6.692;2023-08-31T03:04:37;2.78;;;1.92;;
53751;SDS011;41095;53.090;6.692;2023-08-31T03:07:05;3.33;;;2.20;;
53751;SDS011;41095;53.090;6.692;2023-08-31T03:09:31;2.15;;;1.95;;
53751;SDS011;41095;53.090;6.692;2023-08-31T03:11:57;3.90;;;2.50;;
53751;SDS011;41095;53.090;6.692;2023-08-31T03:14:22;2.05;;;1.90;;
53751;SDS011;41095;53.090;6.692;2023-08-31T03:16:48;2.97;;;2.20;;
53751;SDS011;41095;53.090;6.692;2023-08-31T03:19:14;2.30;;;2.10;;
53751;SDS011;41095;53.090;6.692;2023-08-31T03:21:39;2.38;;;2.17;;
53751;SDS011;41095;53.090;6.692;2023-08-31T03:24:05;3.60;;;2.20;;
53751;SDS011;41095;53.090;6.692;2023-08-31T03:26:31;5.40;;;2.78;;
53751;SDS011;41095;53.090;6.692;2023-08-31T03:28:57;3.45;;;2.67;;
53751;SDS011;41095;53.090;6.692;2023-08-31T03:31:23;2.60;;;2.13;;
53751;SDS011;41095;53.090;6.692;2023-08-31T03:33:49;3.33;;;2.63;;
53751;SDS011;41095;53.090;6.692;2023-08-31T03:36:15;3.63;;;2.40;;
53751;SDS011;41095;53.090;6.692;2023-08-31T03:38:41;5.03;;;2.75;;
53751;SDS011;41095;53.090;6.692;2023-08-31T03:41:07;4.70;;;3.08;;
53751;SDS011;41095;53.090;6.692;2023-08-31T03:43:32;4.40;;;3.25;;
53751;SDS011;41095;53.090;6.692;2023-08-31T03:45:59;3.38;;;2.88;;
53751;SDS011;41095;53.090;6.692;2023-08-31T03:48:25;4.05;;;3.17;;
53751;SDS011;41095;53.090;6.692;2023-08-31T03:50:51;4.75;;;3.28;;
53751;SDS011;41095;53.090;6.692;2023-08-31T03:53:18;3.85;;;3.03;;
53751;SDS011;41095;53.090;6.692;2023-08-31T03:55:43;3.97;;;3.30;;
53751;SDS011;41095;53.090;6.692;2023-08-31T03:58:09;5.00;;;3.38;;
53751;SDS011;41095;53.090;6.692;2023-08-31T04:00:36;6.10;;;3.47;;
53751;SDS011;41095;53.090;6.692;2023-08-31T04:03:02;5.25;;;3.50;;
53751;SDS011;41095;53.090;6.692;2023-08-31T04:05:32;7.07;;;3.60;;
53751;SDS011;41095;53.090;6.692;2023-08-31T04:07:59;5.68;;;3.33;;
53751;SDS011;41095;53.090;6.692;2023-08-31T04:10:25;5.40;;;3.88;;
53751;SDS011;41095;53.090;6.692;2023-08-31T04:12:51;6.25;;;3.08;;
53751;SDS011;41095;53.090;6.692;2023-08-31T04:15:17;5.15;;;3.25;;
53751;SDS011;41095;53.090;6.692;2023-08-31T04:17:43;5.85;;;3.58;;
53751;SDS011;41095;53.090;6.692;2023-08-31T04:20:09;8.23;;;3.90;;
53751;SDS011;41095;53.090;6.692;2023-08-31T04:22:35;4.80;;;3.33;;
53751;SDS011;41095;53.090;6.692;2023-08-31T04:25:01;3.45;;;3.15;;
53751;SDS011;41095;53.090;6.692;2023-08-31T04:27:27;3.90;;;3.38;;
53751;SDS011;41095;53.090;6.692;2023-08-31T04:29:56;3.85;;;2.97;;
53751;SDS011;41095;53.090;6.692;2023-08-31T04:32:22;5.13;;;3.78;;
53751;SDS011;41095;53.090;6.692;2023-08-31T04:34:48;5.00;;;4.50;;
53751;SDS011;41095;53.090;6.692;2023-08-31T04:37:13;6.50;;;4.07;;
53751;SDS011;41095;53.090;6.692;2023-08-31T04:39:39;4.78;;;4.28;;
53751;SDS011;41095;53.090;6.692;2023-08-31T04:42:05;5.05;;;4.65;;
53751;SDS011;41095;53.090;6.692;2023-08-31T04:44:31;4.72;;;4.25;;
53751;SDS011;41095;53.090;6.692;2023-08-31T04:46:56;5.78;;;5.22;;
53751;SDS011;41095;53.090;6.692;2023-08-31T04:49:22;6.50;;;5.90;;
53751;SDS011;41095;53.090;6.692;2023-08-31T04:51:48;5.43;;;4.93;;
53751;SDS011;41095;53.090;6.692;2023-08-31T04:54:13;5.65;;;5.05;;
53751;SDS011;41095;53.090;6.692;2023-08-31T04:56:40;5.63;;;4.57;;
53751;SDS011;41095;53.090;6.692;2023-08-31T04:59:05;7.25;;;5.55;;
53751;SDS011;41095;53.090;6.692;2023-08-31T05:01:31;7.63;;;5.90;;
53751;SDS011;41095;53.090;6.692;2023-08-31T05:03:57;6.88;;;6.22;;
53751;SDS011;41095;53.090;6.692;2023-08-31T05:06:23;7.97;;;6.45;;
53751;SDS011;41095;53.090;6.692;2023-08-31T05:08:49;7.18;;;6.47;;
53751;SDS011;41095;53.090;6.692;2023-08-31T05:11:15;8.07;;;7.32;;
53751;SDS011;41095;53.090;6.692;2023-08-31T05:13:41;9.10;;;7.85;;
53751;SDS011;41095;53.090;6.692;2023-08-31T05:16:09;11.68;;;9.30;;
53751;SDS011;41095;53.090;6.692;2023-08-31T05:18:35;9.45;;;8.45;;
53751;SDS011;41095;53.090;6.692;2023-08-31T05:21:02;8.68;;;7.88;;
53751;SDS011;41095;53.090;6.692;2023-08-31T05:23:28;9.38;;;8.48;;
53751;SDS011;41095;53.090;6.692;2023-08-31T05:25:55;9.65;;;8.15;;
53751;SDS011;41095;53.090;6.692;2023-08-31T05:28:22;8.52;;;7.50;;
53751;SDS011;41095;53.090;6.692;2023-08-31T05:30:50;9.07;;;8.13;;
53751;SDS011;41095;53.090;6.692;2023-08-31T05:33:17;11.13;;;9.35;;
53751;SDS011;41095;53.090;6.692;2023-08-31T05:35:43;9.50;;;8.55;;
53751;SDS011;41095;53.090;6.692;2023-08-31T05:38:09;10.55;;;8.18;;
53751;SDS011;41095;53.090;6.692;2023-08-31T05:40:34;8.98;;;8.15;;
53751;SDS011;41095;53.090;6.692;2023-08-31T05:43:00;8.90;;;8.10;;
53751;SDS011;41095;53.090;6.692;2023-08-31T05:45:26;9.85;;;7.60;;
53751;SDS011;41095;53.090;6.692;2023-08-31T05:47:52;10.80;;;7.78;;
53751;SDS011;41095;53.090;6.692;2023-08-31T05:50:18;14.02;;;8.48;;
53751;SDS011;41095;53.090;6.692;2023-08-31T05:52:43;9.38;;;7.47;;
53751;SDS011;41095;53.090;6.692;2023-08-31T05:55:09;9.43;;;7.95;;
53751;SDS011;41095;53.090;6.692;2023-08-31T05:57:35;9.82;;;7.97;;
53751;SDS011;41095;53.090;6.692;2023-08-31T06:00:02;7.45;;;6.75;;
53751;SDS011;41095;53.090;6.692;2023-08-31T06:02:29;10.70;;;8.23;;
53751;SDS011;41095;53.090;6.692;2023-08-31T06:04:55;11.15;;;7.63;;
53751;SDS011;41095;53.090;6.692;2023-08-31T06:07:21;7.93;;;6.65;;
53751;SDS011;41095;53.090;6.692;2023-08-31T06:09:47;8.13;;;6.03;;
53751;SDS011;41095;53.090;6.692;2023-08-31T06:12:13;8.48;;;7.13;;
53751;SDS011;41095;53.090;6.692;2023-08-31T06:14:39;9.13;;;6.57;;
53751;SDS011;41095;53.090;6.692;2023-08-31T06:17:04;7.88;;;6.13;;
53751;SDS011;41095;53.090;6.692;2023-08-31T06:19:30;9.95;;;6.47;;
53751;SDS011;41095;53.090;6.692;2023-08-31T06:21:56;8.57;;;6.60;;
53751;SDS011;41095;53.090;6.692;2023-08-31T06:24:21;11.65;;;5.68;;
53751;SDS011;41095;53.090;6.692;2023-08-31T06:26:47;7.43;;;6.68;;
53751;SDS011;41095;53.090;6.692;2023-08-31T06:29:13;7.45;;;5.53;;
53751;SDS011;41095;53.090;6.692;2023-08-31T06:31:39;9.73;;;5.78;;
53751;SDS011;41095;53.090;6.692;2023-08-31T06:34:05;5.15;;;4.65;;
53751;SDS011;41095;53.090;6.692;2023-08-31T06:36:30;5.60;;;4.65;;
53751;SDS011;41095;53.090;6.692;2023-08-31T06:38:56;6.53;;;4.57;;
53751;SDS011;41095;53.090;6.692;2023-08-31T06:41:22;5.40;;;4.38;;
53751;SDS011;41095;53.090;6.692;2023-08-31T06:43:47;4.25;;;3.65;;
53751;SDS011;41095;53.090;6.692;2023-08-31T06:46:13;4.60;;;3.67;;
53751;SDS011;41095;53.090;6.692;2023-08-31T06:48:39;7.10;;;3.80;;
53751;SDS011;41095;53.090;6.692;2023-08-31T06:51:05;6.68;;;3.42;;
53751;SDS011;41095;53.090;6.692;2023-08-31T06:53:30;4.20;;;3.22;;
53751;SDS011;41095;53.090;6.692;2023-08-31T06:55:59;4.95;;;3.28;;
53751;SDS011;41095;53.090;6.692;2023-08-31T06:58:24;5.63;;;2.70;;
53751;SDS011;41095;53.090;6.692;2023-08-31T07:00:50;3.67;;;2.78;;
53751;SDS011;41095;53.090;6.692;2023-08-31T07:03:16;4.47;;;3.13;;
53751;SDS011;41095;53.090;6.692;2023-08-31T07:05:42;6.82;;;3.28;;
53751;SDS011;41095;53.090;6.692;2023-08-31T07:08:08;6.18;;;2.60;;
53751;SDS011;41095;53.090;6.692;2023-08-31T07:10:34;2.60;;;2.22;;
53751;SDS011;41095;53.090;6.692;2023-08-31T07:13:04;4.38;;;2.65;;
53751;SDS011;41095;53.090;6.692;2023-08-31T07:15:30;4.38;;;2.33;;
53751;SDS011;41095;53.090;6.692;2023-08-31T07:17:55;3.72;;;1.60;;
53751;SDS011;41095;53.090;6.692;2023-08-31T07:20:21;2.92;;;1.95;;
53751;SDS011;41095;53.090;6.692;2023-08-31T07:22:47;3.60;;;1.58;;
53751;SDS011;41095;53.090;6.692;2023-08-31T07:25:13;1.98;;;1.50;;
53751;SDS011;41095;53.090;6.692;2023-08-31T07:27:39;3.35;;;1.30;;
53751;SDS011;41095;53.090;6.692;2023-08-31T07:30:05;2.08;;;1.20;;
53751;SDS011;41095;53.090;6.692;2023-08-31T07:32:31;3.90;;;1.38;;
53751;SDS011;41095;53.090;6.692;2023-08-31T07:34:57;3.47;;;1.20;;
53751;SDS011;41095;53.090;6.692;2023-08-31T07:37:23;2.42;;;1.30;;
53751;SDS011;41095;53.090;6.692;2023-08-31T07:39:48;2.40;;;1.05;;
53751;SDS011;41095;53.090;6.692;2023-08-31T07:42:14;1.40;;;1.00;;
53751;SDS011;41095;53.090;6.692;2023-08-31T07:44:40;2.28;;;1.30;;
53751;SDS011;41095;53.090;6.692;2023-08-31T07:47:07;2.35;;;1.13;;
53751;SDS011;41095;53.090;6.692;2023-08-31T07:49:33;2.03;;;1.20;;
53751;SDS011;41095;53.090;6.692;2023-08-31T07:51:58;2.72;;;1.00;;
53751;SDS011;41095;53.090;6.692;2023-08-31T07:54:24;1.48;;;0.75;;
53751;SDS011;41095;53.090;6.692;2023-08-31T07:56:51;1.42;;;0.82;;
53751;SDS011;41095;53.090;6.692;2023-08-31T07:59:17;2.80;;;0.98;;
53751;SDS011;41095;53.090;6.692;2023-08-31T08:01:43;2.60;;;0.70;;
53751;SDS011;41095;53.090;6.692;2023-08-31T08:04:10;4.53;;;1.52;;
53751;SDS011;41095;53.090;6.692;2023-08-31T08:06:36;1.98;;;0.73;;
53751;SDS011;41095;53.090;6.692;2023-08-31T08:09:02;2.90;;;1.00;;
53751;SDS011;41095;53.090;6.692;2023-08-31T08:11:29;1.60;;;1.00;;
53751;SDS011;41095;53.090;6.692;2023-08-31T08:13:56;2.35;;;0.55;;
53751;SDS011;41095;53.090;6.692;2023-08-31T08:16:22;2.58;;;1.05;;
53751;SDS011;41095;53.090;6.692;2023-08-31T08:18:49;2.55;;;1.00;;
53751;SDS011;41095;53.090;6.692;2023-08-31T08:21:15;1.85;;;1.13;;
53751;SDS011;41095;53.090;6.692;2023-08-31T08:23:41;0.80;;;0.80;;
53751;SDS011;41095;53.090;6.692;2023-08-31T08:26:06;1.38;;;0.80;;
53751;SDS011;41095;53.090;6.692;2023-08-31T08:28:32;1.30;;;0.60;;
53751;SDS011;41095;53.090;6.692;2023-08-31T08:31:00;2.47;;;0.90;;
53751;SDS011;41095;53.090;6.692;2023-08-31T08:33:28;2.70;;;0.98;;
53751;SDS011;41095;53.090;6.692;2023-08-31T08:35:58;1.77;;;0.70;;
53751;SDS011;41095;53.090;6.692;2023-08-31T08:38:24;0.90;;;0.80;;
53751;SDS011;41095;53.090;6.692;2023-08-31T08:40:50;4.15;;;1.02;;
53751;SDS011;41095;53.090;6.692;2023-08-31T08:43:16;4.43;;;1.00;;
53751;SDS011;41095;53.090;6.692;2023-08-31T08:45:52;2.03;;;0.90;;
53751;SDS011;41095;53.090;6.692;2023-08-31T08:48:19;2.00;;;1.10;;
53751;SDS011;41095;53.090;6.692;2023-08-31T08:50:46;3.60;;;0.88;;
53751;SDS011;41095;53.090;6.692;2023-08-31T08:53:13;2.53;;;0.93;;
53751;SDS011;41095;53.090;6.692;2023-08-31T08:55:43;2.92;;;0.90;;
53751;SDS011;41095;53.090;6.692;2023-08-31T08:58:09;2.17;;;1.00;;
53751;SDS011;41095;53.090;6.692;2023-08-31T09:00:35;1.15;;;0.77;;
53751;SDS011;41095;53.090;6.692;2023-08-31T09:03:01;1.15;;;0.70;;
53751;SDS011;41095;53.090;6.692;2023-08-31T09:05:32;1.52;;;0.73;;
53751;SDS011;41095;53.090;6.692;2023-08-31T09:08:02;2.33;;;0.90;;
53751;SDS011;41095;53.090;6.692;2023-08-31T09:10:41;2.05;;;1.05;;
53751;SDS011;41095;53.090;6.692;2023-08-31T09:13:13;0.93;;;0.70;;
53751;SDS011;41095;53.090;6.692;2023-08-31T09:18:25;1.27;;;0.70;;
53751;SDS011;41095;53.090;6.692;2023-08-31T09:20:53;1.58;;;1.02;;
53751;SDS011;41095;53.090;6.692;2023-08-31T09:23:19;1.50;;;1.02;;
53751;SDS011;41095;53.090;6.692;2023-08-31T09:25:49;0.82;;;0.40;;
53751;SDS011;41095;53.090;6.692;2023-08-31T09:28:16;2.00;;;0.57;;
53751;SDS011;41095;53.090;6.692;2023-08-31T09:30:45;6.13;;;1.27;;
53751;SDS011;41095;53.090;6.692;2023-08-31T09:33:15;5.88;;;1.52;;
53751;SDS011;41095;53.090;6.692;2023-08-31T09:35:53;5.20;;;1.40;;
53751;SDS011;41095;53.090;6.692;2023-08-31T09:38:22;15.77;;;5.65;;
53751;SDS011;41095;53.090;6.692;2023-08-31T09:40:47;2.08;;;1.15;;
53751;SDS011;41095;53.090;6.692;2023-08-31T09:43:22;0.70;;;0.70;;
53751;SDS011;41095;53.090;6.692;2023-08-31T09:45:49;1.50;;;0.77;;
53751;SDS011;41095;53.090;6.692;2023-08-31T09:48:16;1.35;;;0.73;;
53751;SDS011;41095;53.090;6.692;2023-08-31T09:50:45;1.67;;;0.82;;
53751;SDS011;41095;53.090;6.692;2023-08-31T09:53:11;1.67;;;0.77;;
53751;SDS011;41095;53.090;6.692;2023-08-31T09:55:38;2.95;;;0.77;;
53751;SDS011;41095;53.090;6.692;2023-08-31T09:58:05;1.38;;;0.90;;
53751;SDS011;41095;53.090;6.692;2023-08-31T10:00:35;2.85;;;0.80;;
53751;SDS011;41095;53.090;6.692;2023-08-31T10:03:04;0.82;;;0.68;;
53751;SDS011;41095;53.090;6.692;2023-08-31T10:05:31;1.58;;;0.82;;
53751;SDS011;41095;53.090;6.692;2023-08-31T10:07:58;1.00;;;0.63;;
53751;SDS011;41095;53.090;6.692;2023-08-31T10:10:24;2.22;;;1.20;;
53751;SDS011;41095;53.090;6.692;2023-08-31T10:12:51;2.20;;;0.75;;
53751;SDS011;41095;53.090;6.692;2023-08-31T10:15:18;2.42;;;1.10;;
53751;SDS011;41095;53.090;6.692;2023-08-31T10:17:45;3.72;;;0.73;;
53751;SDS011;41095;53.090;6.692;2023-08-31T10:20:12;0.75;;;0.70;;
53751;SDS011;41095;53.090;6.692;2023-08-31T10:22:40;4.28;;;1.48;;
53751;SDS011;41095;53.090;6.692;2023-08-31T10:25:07;2.58;;;1.02;;
53751;SDS011;41095;53.090;6.692;2023-08-31T10:27:41;1.90;;;0.77;;
53751;SDS011;41095;53.090;6.692;2023-08-31T10:40:42;1.33;;;0.70;;
53751;SDS011;41095;53.090;6.692;2023-08-31T10:43:24;0.90;;;0.90;;
53751;SDS011;41095;53.090;6.692;2023-08-31T10:45:49;1.15;;;0.90;;
53751;SDS011;41095;53.090;6.692;2023-08-31T10:48:16;4.38;;;1.20;;
53751;SDS011;41095;53.090;6.692;2023-08-31T10:50:42;1.95;;;1.00;;
53751;SDS011;41095;53.090;6.692;2023-08-31T10:53:12;1.45;;;0.88;;
53751;SDS011;41095;53.090;6.692;2023-08-31T10:55:53;1.33;;;0.90;;
53751;SDS011;41095;53.090;6.692;2023-08-31T10:58:19;3.15;;;0.90;;
53751;SDS011;41095;53.090;6.692;2023-08-31T11:00:51;2.22;;;1.00;;
53751;SDS011;41095;53.090;6.692;2023-08-31T11:03:18;1.08;;;1.05;;
53751;SDS011;41095;53.090;6.692;2023-08-31T11:05:50;2.30;;;1.10;;
53751;SDS011;41095;53.090;6.692;2023-08-31T11:08:21;2.05;;;0.93;;
53751;SDS011;41095;53.090;6.692;2023-08-31T11:10:48;1.55;;;0.77;;
53751;SDS011;41095;53.090;6.692;2023-08-31T11:13:18;2.95;;;0.90;;
53751;SDS011;41095;53.090;6.692;2023-08-31T11:15:47;2.55;;;0.75;;
53751;SDS011;41095;53.090;6.692;2023-08-31T11:18:13;2.03;;;1.10;;
53751;SDS011;41095;53.090;6.692;2023-08-31T11:20:41;1.30;;;0.80;;
53751;SDS011;41095;53.090;6.692;2023-08-31T11:23:08;2.72;;;0.98;;
53751;SDS011;41095;53.090;6.692;2023-08-31T11:25:34;0.75;;;0.63;;
53751;SDS011;41095;53.090;6.692;2023-08-31T11:28:00;2.53;;;1.05;;
53751;SDS011;41095;53.090;6.692;2023-08-31T11:30:30;1.42;;;0.85;;
53751;SDS011;41095;53.090;6.692;2023-08-31T11:32:56;1.40;;;1.02;;
53751;SDS011;41095;53.090;6.692;2023-08-31T11:35:30;3.63;;;1.08;;
53751;SDS011;41095;53.090;6.692;2023-08-31T11:38:01;1.45;;;1.20;;
53751;SDS011;41095;53.090;6.692;2023-08-31T11:40:28;1.48;;;0.93;;
53751;SDS011;41095;53.090;6.692;2023-08-31T11:42:54;1.52;;;1.23;;
53751;SDS011;41095;53.090;6.692;2023-08-31T11:45:20;1.88;;;1.15;;
53751;SDS011;41095;53.090;6.692;2023-08-31T11:47:48;1.02;;;0.80;;
53751;SDS011;41095;53.090;6.692;2023-08-31T11:50:14;2.38;;;1.25;;
53751;SDS011;41095;53.090;6.692;2023-08-31T11:52:41;2.05;;;1.00;;
53751;SDS011;41095;53.090;6.692;2023-08-31T11:55:14;2.58;;;1.27;;
53751;SDS011;41095;53.090;6.692;2023-08-31T11:57:51;2.58;;;0.90;;
53751;SDS011;41095;53.090;6.692;2023-08-31T12:00:19;2.03;;;0.88;;
53751;SDS011;41095;53.090;6.692;2023-08-31T12:02:55;1.08;;;0.98;;
53751;SDS011;41095;53.090;6.692;2023-08-31T12:05:21;1.60;;;1.00;;
53751;SDS011;41095;53.090;6.692;2023-08-31T12:07:47;1.75;;;1.10;;
53751;SDS011;41095;53.090;6.692;2023-08-31T12:10:14;1.38;;;1.10;;
53751;SDS011;41095;53.090;6.692;2023-08-31T12:12:40;2.45;;;0.98;;
53751;SDS011;41095;53.090;6.692;2023-08-31T12:15:05;1.27;;;0.90;;
53751;SDS011;41095;53.090;6.692;2023-08-31T12:17:31;2.22;;;0.90;;
53751;SDS011;41095;53.090;6.692;2023-08-31T12:20:04;1.63;;;1.00;;
53751;SDS011;41095;53.090;6.692;2023-08-31T12:22:31;1.38;;;0.75;;
53751;SDS011;41095;53.090;6.692;2023-08-31T12:24:57;0.85;;;0.82;;
53751;SDS011;41095;53.090;6.692;2023-08-31T12:27:23;1.45;;;1.00;;
53751;SDS011;41095;53.090;6.692;2023-08-31T12:29:48;1.50;;;0.85;;
53751;SDS011;41095;53.090;6.692;2023-08-31T12:32:15;2.97;;;1.13;;
53751;SDS011;41095;53.090;6.692;2023-08-31T12:34:43;1.58;;;0.90;;
53751;SDS011;41095;53.090;6.692;2023-08-31T12:37:08;1.38;;;0.80;;
53751;SDS011;41095;53.090;6.692;2023-08-31T12:39:34;1.92;;;1.10;;
53751;SDS011;41095;53.090;6.692;2023-08-31T12:42:00;1.52;;;0.80;;
53751;SDS011;41095;53.090;6.692;2023-08-31T12:44:26;1.15;;;0.77;;
53751;SDS011;41095;53.090;6.692;2023-08-31T12:46:52;0.73;;;0.73;;
53751;SDS011;41095;53.090;6.692;2023-08-31T12:49:17;1.77;;;0.90;;
53751;SDS011;41095;53.090;6.692;2023-08-31T12:51:45;2.10;;;1.00;;
53751;SDS011;41095;53.090;6.692;2023-08-31T12:54:11;1.27;;;1.00;;
53751;SDS011;41095;53.090;6.692;2023-08-31T12:56:37;2.00;;;0.90;;
53751;SDS011;41095;53.090;6.692;2023-08-31T12:59:03;2.03;;;1.15;;
53751;SDS011;41095;53.090;6.692;2023-08-31T13:01:30;2.30;;;0.90;;
53751;SDS011;41095;53.090;6.692;2023-08-31T13:03:58;3.28;;;1.15;;
53751;SDS011;41095;53.090;6.692;2023-08-31T13:06:24;2.70;;;1.40;;
53751;SDS011;41095;53.090;6.692;2023-08-31T13:08:50;3.00;;;1.02;;
53751;SDS011;41095;53.090;6.692;2023-08-31T13:11:16;1.05;;;0.95;;
53751;SDS011;41095;53.090;6.692;2023-08-31T13:13:44;1.42;;;0.93;;
53751;SDS011;41095;53.090;6.692;2023-08-31T13:16:09;2.55;;;0.88;;
53751;SDS011;41095;53.090;6.692;2023-08-31T13:18:35;3.80;;;1.55;;
53751;SDS011;41095;53.090;6.692;2023-08-31T13:21:01;1.25;;;1.15;;
53751;SDS011;41095;53.090;6.692;2023-08-31T13:23:28;1.92;;;1.00;;
53751;SDS011;41095;53.090;6.692;2023-08-31T13:25:53;3.50;;;1.08;;
53751;SDS011;41095;53.090;6.692;2023-08-31T13:28:21;4.20;;;1.63;;
53751;SDS011;41095;53.090;6.692;2023-08-31T13:30:47;6.50;;;2.20;;
53751;SDS011;41095;53.090;6.692;2023-08-31T13:33:12;2.60;;;1.30;;
53751;SDS011;41095;53.090;6.692;2023-08-31T13:35:38;2.42;;;1.45;;
53751;SDS011;41095;53.090;6.692;2023-08-31T13:38:04;1.67;;;1.05;;
53751;SDS011;41095;53.090;6.692;2023-08-31T13:40:29;4.25;;;1.95;;
53751;SDS011;41095;53.090;6.692;2023-08-31T13:42:56;1.70;;;1.40;;
53751;SDS011;41095;53.090;6.692;2023-08-31T13:45:26;2.30;;;1.40;;
53751;SDS011;41095;53.090;6.692;2023-08-31T13:47:52;3.97;;;1.85;;
53751;SDS011;41095;53.090;6.692;2023-08-31T13:50:18;3.88;;;1.55;;
53751;SDS011;41095;53.090;6.692;2023-08-31T13:52:44;3.05;;;1.30;;
53751;SDS011;41095;53.090;6.692;2023-08-31T13:55:10;3.03;;;1.70;;
53751;SDS011;41095;53.090;6.692;2023-08-31T13:57:36;2.83;;;1.30;;
53751;SDS011;41095;53.090;6.692;2023-08-31T14:00:03;2.95;;;1.38;;
53751;SDS011;41095;53.090;6.692;2023-08-31T14:02:30;4.28;;;1.27;;
53751;SDS011;41095;53.090;6.692;2023-08-31T14:04:56;2.72;;;1.10;;
53751;SDS011;41095;53.090;6.692;2023-08-31T14:07:22;3.42;;;1.35;;
53751;SDS011;41095;53.090;6.692;2023-08-31T14:09:48;8.98;;;1.77;;
53751;SDS011;41095;53.090;6.692;2023-08-31T14:12:14;2.55;;;1.40;;
53751;SDS011;41095;53.090;6.692;2023-08-31T14:14:39;3.38;;;1.08;;
53751;SDS011;41095;53.090;6.692;2023-08-31T14:17:06;2.33;;;1.10;;
53751;SDS011;41095;53.090;6.692;2023-08-31T14:19:33;1.73;;;1.35;;
53751;SDS011;41095;53.090;6.692;2023-08-31T14:22:01;2.65;;;1.15;;
53751;SDS011;41095;53.090;6.692;2023-08-31T14:24:28;2.92;;;1.35;;
53751;SDS011;41095;53.090;6.692;2023-08-31T14:26:54;3.15;;;1.48;;
53751;SDS011;41095;53.090;6.692;2023-08-31T14:29:20;1.10;;;1.02;;
53751;SDS011;41095;53.090;6.692;2023-08-31T14:31:46;3.95;;;1.90;;
53751;SDS011;41095;53.090;6.692;2023-08-31T14:34:11;3.22;;;1.55;;
53751;SDS011;41095;53.090;6.692;2023-08-31T14:36:37;4.35;;;1.30;;
53751;SDS011;41095;53.090;6.692;2023-08-31T14:39:03;2.85;;;1.25;;
53751;SDS011;41095;53.090;6.692;2023-08-31T14:41:30;2.13;;;1.25;;
53751;SDS011;41095;53.090;6.692;2023-08-31T14:43:56;3.00;;;1.60;;
53751;SDS011;41095;53.090;6.692;2023-08-31T14:46:21;1.85;;;1.35;;
53751;SDS011;41095;53.090;6.692;2023-08-31T14:48:49;4.38;;;1.30;;
53751;SDS011;41095;53.090;6.692;2023-08-31T14:51:15;3.28;;;1.42;;
53751;SDS011;41095;53.090;6.692;2023-08-31T14:53:41;1.52;;;1.20;;
53751;SDS011;41095;53.090;6.692;2023-08-31T14:56:07;4.68;;;1.40;;
53751;SDS011;41095;53.090;6.692;2023-08-31T14:58:33;4.53;;;1.35;;
53751;SDS011;41095;53.090;6.692;2023-08-31T15:00:59;2.90;;;1.25;;
53751;SDS011;41095;53.090;6.692;2023-08-31T15:03:25;3.70;;;1.33;;
53751;SDS011;41095;53.090;6.692;2023-08-31T15:05:51;1.80;;;1.20;;
53751;SDS011;41095;53.090;6.692;2023-08-31T15:08:17;1.55;;;1.30;;
53751;SDS011;41095;53.090;6.692;2023-08-31T15:10:43;3.33;;;1.30;;
53751;SDS011;41095;53.090;6.692;2023-08-31T15:13:08;2.42;;;1.63;;
53751;SDS011;41095;53.090;6.692;2023-08-31T15:15:34;2.88;;;1.00;;